createdAt,value
2023-04-07T00:02:13.923Z,7.17
2023-04-07T00:04:41.473Z,6.60
2023-04-07T00:07:09.144Z,6.87
2023-04-07T00:09:37.055Z,6.60
2023-04-07T00:12:04.868Z,7.67
2023-04-07T00:14:32.374Z,7.03
2023-04-07T00:16:59.915Z,7.90
2023-04-07T00:19:27.420Z,5.87
2023-04-07T00:21:54.900Z,7.57
2023-04-07T00:24:33.371Z,6.40
2023-04-07T00:27:02.381Z,6.70
2023-04-07T00:29:30.442Z,6.77
2023-04-07T00:31:58.454Z,7.87
2023-04-07T00:34:26.468Z,7.00
2023-04-07T00:36:54.001Z,7.07
2023-04-07T00:39:22.005Z,6.87
2023-04-07T00:41:49.517Z,6.93
2023-04-07T00:44:17.231Z,8.30
2023-04-07T00:46:46.964Z,7.20
2023-04-07T00:49:17.709Z,7.60
2023-04-07T00:51:46.619Z,6.83
2023-04-07T00:54:14.830Z,7.40
2023-04-07T00:56:43.687Z,7.33
2023-04-07T00:59:11.615Z,7.20
2023-04-07T01:02:09.953Z,6.80
2023-04-07T01:05:09.046Z,7.00
2023-04-07T01:08:15.486Z,7.13
2023-04-07T01:10:53.119Z,7.00
2023-04-07T01:13:57.491Z,7.30
2023-04-07T01:16:52.469Z,7.20
2023-04-07T01:19:46.213Z,6.53
2023-04-07T01:22:22.112Z,7.97
2023-04-07T01:25:22.138Z,7.80
2023-04-07T01:28:01.893Z,7.20
2023-04-07T01:30:34.662Z,7.23
2023-04-07T01:33:04.064Z,7.00
2023-04-07T01:35:35.895Z,7.87
2023-04-07T01:38:04.978Z,7.23
2023-04-07T01:40:35.225Z,6.80
2023-04-07T01:43:03.560Z,7.13
2023-04-07T01:45:34.348Z,6.10
2023-04-07T01:48:02.957Z,7.17
2023-04-07T01:50:31.348Z,7.23
2023-04-07T01:52:59.487Z,7.27
2023-04-07T01:55:28.297Z,7.00
2023-04-07T01:58:07.198Z,6.87
2023-04-07T02:00:36.724Z,6.50
2023-04-07T02:03:22.979Z,6.50
2023-04-07T02:05:57.557Z,7.97
2023-04-07T02:08:31.891Z,7.53
2023-04-07T02:11:03.610Z,7.27
2023-04-07T02:16:02.961Z,7.03
2023-04-07T02:18:32.375Z,6.97
2023-04-07T02:21:02.788Z,7.10
2023-04-07T02:23:30.632Z,6.93
2023-04-07T02:25:58.442Z,7.07
2023-04-07T02:28:26.022Z,5.97
2023-04-07T02:30:53.535Z,6.97
2023-04-07T02:33:21.229Z,6.87
2023-04-07T02:35:48.812Z,7.90
2023-04-07T02:38:16.368Z,7.00
2023-04-07T02:40:43.869Z,7.03
2023-04-07T02:43:11.461Z,7.40
2023-04-07T02:45:38.995Z,6.53
2023-04-07T02:48:06.602Z,8.17
2023-04-07T02:50:34.176Z,7.63
2023-04-07T02:53:01.694Z,7.73
2023-04-07T02:55:29.212Z,7.17
2023-04-07T02:57:56.838Z,7.60
2023-04-07T03:00:38.790Z,7.93
2023-04-07T03:03:12.569Z,7.07
2023-04-07T03:05:43.463Z,6.67
2023-04-07T03:08:13.168Z,7.10
2023-04-07T03:10:41.032Z,7.37
2023-04-07T03:13:09.818Z,7.03
2023-04-07T03:15:38.285Z,7.47
2023-04-07T03:18:06.990Z,7.17
2023-04-07T03:20:35.598Z,7.10
2023-04-07T03:23:09.098Z,7.88
2023-04-07T03:25:37.152Z,7.90
2023-04-07T03:28:05.114Z,7.83
2023-04-07T03:30:35.957Z,7.10
2023-04-07T03:33:03.851Z,7.07
2023-04-07T03:35:32.425Z,7.60
2023-04-07T03:37:59.977Z,7.20
2023-04-07T03:40:27.707Z,7.93
2023-04-07T03:42:55.290Z,6.97
2023-04-07T03:45:23.064Z,6.80
2023-04-07T03:47:54.259Z,7.53
2023-04-07T03:50:22.905Z,7.33
2023-04-07T03:53:11.413Z,7.07
2023-04-07T03:55:40.006Z,8.33
2023-04-07T03:58:15.409Z,7.70
2023-04-07T04:00:45.570Z,7.60
2023-04-07T04:03:13.561Z,7.60
2023-04-07T04:05:50.999Z,7.57
2023-04-07T04:08:23.043Z,8.40
2023-04-07T04:10:51.209Z,7.03
2023-04-07T04:13:19.586Z,7.13
2023-04-07T04:15:47.894Z,8.67
2023-04-07T04:18:18.029Z,7.90
2023-04-07T04:20:45.946Z,7.27
2023-04-07T04:23:13.470Z,8.13
2023-04-07T04:25:42.456Z,8.23
2023-04-07T04:28:12.504Z,7.47
2023-04-07T04:30:41.080Z,6.70
2023-04-07T04:33:10.338Z,8.00
2023-04-07T04:35:46.351Z,8.37
2023-04-07T04:38:17.438Z,8.43
2023-04-07T04:40:52.782Z,8.63
2023-04-07T04:43:26.061Z,8.25
2023-04-07T04:45:53.947Z,10.13
2023-04-07T04:48:25.112Z,8.50
2023-04-07T04:50:52.624Z,8.63
2023-04-07T04:53:21.650Z,8.33
2023-04-07T04:56:00.928Z,8.33
2023-04-07T04:58:40.281Z,7.90
2023-04-07T05:01:08.682Z,6.70
2023-04-07T05:03:41.786Z,6.93
2023-04-07T05:06:21.606Z,8.00
2023-04-07T05:08:51.497Z,8.33
2023-04-07T05:11:23.028Z,7.50
2023-04-07T05:13:53.739Z,8.33
2023-04-07T05:16:21.543Z,8.17
2023-04-07T05:18:49.051Z,7.30
2023-04-07T05:21:17.544Z,8.73
2023-04-07T05:23:45.469Z,8.13
2023-04-07T05:26:13.661Z,8.03
2023-04-07T05:28:43.674Z,7.30
2023-04-07T05:31:17.093Z,7.80
2023-04-07T05:33:47.604Z,7.73
2023-04-07T05:36:16.435Z,7.70
2023-04-07T05:38:44.156Z,7.93
2023-04-07T05:41:15.515Z,8.57
2023-04-07T05:43:43.050Z,8.33
2023-04-07T05:46:10.871Z,8.33
2023-04-07T05:48:47.337Z,8.57
2023-04-07T05:51:15.672Z,8.30
2023-04-07T05:53:44.015Z,7.90
2023-04-07T05:56:11.754Z,8.53
2023-04-07T05:58:44.501Z,9.13
2023-04-07T06:01:13.278Z,11.50
2023-04-07T06:03:41.176Z,9.63
2023-04-07T06:06:15.943Z,10.10
2023-04-07T06:08:43.585Z,10.67
2023-04-07T06:11:13.074Z,8.33
2023-04-07T06:13:40.866Z,8.53
2023-04-07T06:16:09.587Z,8.07
2023-04-07T06:18:38.426Z,8.10
2023-04-07T06:21:07.482Z,7.90
2023-04-07T06:23:35.068Z,7.47
2023-04-07T06:26:02.761Z,8.37
2023-04-07T06:28:30.851Z,7.60
2023-04-07T06:31:00.053Z,7.40
2023-04-07T06:33:28.530Z,8.07
2023-04-07T06:35:57.510Z,7.87
2023-04-07T06:38:25.261Z,8.80
2023-04-07T06:40:52.777Z,7.67
2023-04-07T06:43:20.305Z,7.40
2023-04-07T06:45:56.506Z,8.37
2023-04-07T06:48:24.168Z,8.47
2023-04-07T06:50:52.159Z,10.57
2023-04-07T06:53:19.646Z,11.70
2023-04-07T06:55:47.144Z,7.60
2023-04-07T06:58:14.681Z,7.23
2023-04-07T07:00:42.176Z,7.40
2023-04-07T07:03:09.795Z,7.17
2023-04-07T07:05:37.573Z,6.87
2023-04-07T07:08:05.063Z,6.80
2023-04-07T07:10:32.560Z,6.10
2023-04-07T07:13:00.246Z,7.87
2023-04-07T07:15:27.741Z,6.73
2023-04-07T07:17:55.442Z,6.47
2023-04-07T07:20:23.534Z,6.17
2023-04-07T07:22:51.027Z,6.17
2023-04-07T07:25:18.565Z,5.47
2023-04-07T07:27:46.157Z,6.00
2023-04-07T07:30:13.845Z,5.20
2023-04-07T07:32:41.420Z,5.23
2023-04-07T07:35:09.025Z,5.10
2023-04-07T07:37:36.544Z,5.03
2023-04-07T07:40:04.386Z,4.30
2023-04-07T07:42:32.158Z,4.97
2023-04-07T07:44:59.836Z,4.53
2023-04-07T07:47:27.550Z,4.70
2023-04-07T07:49:55.210Z,5.70
2023-04-07T07:52:22.787Z,5.20
2023-04-07T07:54:51.299Z,4.87
2023-04-07T07:57:18.892Z,6.40
2023-04-07T07:59:46.622Z,5.43
2023-04-07T08:02:14.284Z,5.57
2023-04-07T08:04:41.931Z,5.73
2023-04-07T08:07:09.516Z,5.60
2023-04-07T08:09:37.045Z,4.47
2023-04-07T08:12:04.823Z,5.53
2023-04-07T08:14:32.424Z,4.87
2023-04-07T08:16:59.917Z,5.27
2023-04-07T08:19:27.439Z,5.13
2023-04-07T08:21:54.916Z,4.70
2023-04-07T08:24:22.430Z,5.50
2023-04-07T08:26:49.908Z,6.83
2023-04-07T08:29:17.405Z,5.17
2023-04-07T08:31:44.925Z,4.93
2023-04-07T08:34:13.633Z,4.37
2023-04-07T08:36:43.550Z,4.67
2023-04-07T08:39:11.562Z,7.37
2023-04-07T08:41:44.580Z,4.83
2023-04-07T08:44:14.996Z,6.05
2023-04-07T08:46:44.680Z,6.20
2023-04-07T08:49:14.048Z,5.70
2023-04-07T08:51:48.248Z,8.03
2023-04-07T08:54:18.932Z,4.17
2023-04-07T08:56:46.713Z,5.63
2023-04-07T08:59:18.188Z,5.33
2023-04-07T09:01:47.239Z,5.00
2023-04-07T09:04:15.069Z,5.17
2023-04-07T09:06:43.575Z,5.00
2023-04-07T09:09:11.415Z,5.10
2023-04-07T09:11:41.004Z,4.47
2023-04-07T09:14:08.561Z,4.90
2023-04-07T09:16:36.414Z,5.47
2023-04-07T09:19:04.078Z,5.00
2023-04-07T09:21:52.262Z,4.33
2023-04-07T09:24:28.490Z,4.67
2023-04-07T09:27:13.963Z,4.60
2023-04-07T09:29:45.259Z,3.73
2023-04-07T09:32:14.080Z,2.80
2023-04-07T09:34:41.997Z,3.50
2023-04-07T09:37:22.836Z,3.47
2023-04-07T09:39:53.774Z,2.90
2023-04-07T09:42:21.579Z,3.47
2023-04-07T09:44:49.196Z,3.03
2023-04-07T09:47:17.944Z,2.93
2023-04-07T09:49:53.993Z,3.50
2023-04-07T09:52:46.425Z,2.43
2023-04-07T09:55:15.911Z,2.93
2023-04-07T09:57:45.336Z,2.80
2023-04-07T10:00:13.819Z,3.33
2023-04-07T10:02:43.217Z,3.92
2023-04-07T10:05:11.259Z,3.73
2023-04-07T10:07:40.899Z,4.40
2023-04-07T10:10:10.428Z,4.07
2023-04-07T10:12:38.451Z,3.05
2023-04-07T10:15:07.221Z,2.67
2023-04-07T10:17:37.896Z,2.72
2023-04-07T10:20:09.902Z,2.65
2023-04-07T10:22:41.315Z,2.78
2023-04-07T10:25:12.570Z,3.20
2023-04-07T10:27:56.400Z,3.05
2023-04-07T10:30:34.492Z,4.10
2023-04-07T10:33:02.407Z,5.15
2023-04-07T10:36:07.343Z,5.10
2023-04-07T10:38:34.953Z,4.80
2023-04-07T10:41:41.447Z,4.15
2023-04-07T10:44:40.699Z,3.72
2023-04-07T10:47:08.585Z,3.85
2023-04-07T10:49:36.752Z,4.18
2023-04-07T10:52:13.081Z,3.58
2023-04-07T10:54:41.419Z,4.65
2023-04-07T10:57:14.359Z,5.32
2023-04-07T11:00:12.115Z,4.97
2023-04-07T11:02:41.298Z,5.13
2023-04-07T11:05:19.442Z,5.50
2023-04-07T11:07:51.073Z,5.07
2023-04-07T11:10:19.474Z,4.90
2023-04-07T11:13:08.223Z,5.75
2023-04-07T11:15:40.414Z,6.15
2023-04-07T11:18:18.444Z,5.47
2023-04-07T11:20:56.281Z,4.95
2023-04-07T11:23:25.431Z,4.25
2023-04-07T11:26:03.613Z,4.60
2023-04-07T11:28:32.135Z,5.40
2023-04-07T11:31:00.249Z,4.20
2023-04-07T11:33:31.637Z,3.53
2023-04-07T11:36:02.141Z,7.28
2023-04-07T11:38:36.443Z,4.97
2023-04-07T11:41:13.429Z,5.33
2023-04-07T11:43:41.953Z,5.05
2023-04-07T11:46:16.595Z,5.60
2023-04-07T11:48:45.781Z,4.73
2023-04-07T11:51:17.612Z,3.63
2023-04-07T11:53:46.150Z,3.20
2023-04-07T11:56:17.411Z,4.15
2023-04-07T11:58:53.227Z,3.55
2023-04-07T12:01:24.621Z,4.10
2023-04-07T12:04:04.366Z,4.53
2023-04-07T12:06:38.508Z,5.00
2023-04-07T12:09:06.298Z,5.13
2023-04-07T12:11:35.857Z,5.38
2023-04-07T12:14:05.113Z,5.80
2023-04-07T12:16:37.542Z,6.25
2023-04-07T12:19:05.360Z,5.70
2023-04-07T12:21:33.193Z,6.88
2023-04-07T12:24:01.032Z,5.00
2023-04-07T12:26:29.854Z,5.45
2023-04-07T12:28:58.831Z,4.75
2023-04-07T12:31:26.370Z,4.88
2023-04-07T12:33:53.906Z,5.00
2023-04-07T12:36:21.402Z,5.85
2023-04-07T12:38:48.886Z,7.43
2023-04-07T12:41:16.608Z,6.20
2023-04-07T12:43:44.999Z,5.18
2023-04-07T12:46:14.368Z,5.63
2023-04-07T12:48:41.944Z,7.10
2023-04-07T12:51:09.625Z,6.07
2023-04-07T12:53:37.309Z,7.00
2023-04-07T12:56:04.974Z,5.70
2023-04-07T12:58:33.129Z,5.90
2023-04-07T13:01:00.758Z,6.50
2023-04-07T13:03:28.604Z,8.70
2023-04-07T13:05:56.348Z,22.83
2023-04-07T13:08:23.857Z,11.70
2023-04-07T13:10:51.418Z,7.25
2023-04-07T13:13:18.929Z,5.83
2023-04-07T13:15:46.450Z,5.22
2023-04-07T13:18:14.218Z,8.90
2023-04-07T13:20:41.747Z,11.17
2023-04-07T13:23:10.243Z,6.43
2023-04-07T13:25:38.193Z,5.72
2023-04-07T13:28:05.866Z,4.80
2023-04-07T13:30:33.498Z,4.97
2023-04-07T13:33:01.389Z,5.57
2023-04-07T13:35:30.945Z,4.65
2023-04-07T13:37:58.465Z,4.83
2023-04-07T13:40:25.974Z,4.50
2023-04-07T13:42:53.523Z,8.23
2023-04-07T13:45:20.989Z,6.45
2023-04-07T13:47:48.581Z,4.67
2023-04-07T13:50:16.287Z,5.20
2023-04-07T13:52:43.899Z,5.20
2023-04-07T13:55:11.953Z,6.50
2023-04-07T13:57:39.458Z,7.60
2023-04-07T14:00:07.893Z,5.60
2023-04-07T14:02:36.546Z,4.97
2023-04-07T14:05:04.561Z,5.15
2023-04-07T14:07:32.075Z,5.38
2023-04-07T14:09:59.613Z,5.60
2023-04-07T14:12:27.377Z,5.93
2023-04-07T14:14:54.924Z,5.97
2023-04-07T14:17:22.605Z,6.40
2023-04-07T14:19:50.106Z,4.85
2023-04-07T14:22:18.238Z,5.15
2023-04-07T14:24:45.804Z,4.97
2023-04-07T14:27:14.119Z,6.47
2023-04-07T14:29:41.661Z,5.90
2023-04-07T14:32:09.218Z,5.18
2023-04-07T14:34:36.715Z,5.80
2023-04-07T14:37:04.235Z,4.32
2023-04-07T14:39:31.788Z,4.32
2023-04-07T14:42:00.570Z,4.95
2023-04-07T14:44:29.063Z,4.07
2023-04-07T14:46:56.603Z,5.03
2023-04-07T14:49:25.843Z,4.53
2023-04-07T14:51:53.415Z,4.78
2023-04-07T14:54:21.605Z,4.50
2023-04-07T14:56:49.527Z,5.15
2023-04-07T14:59:17.167Z,4.22
2023-04-07T15:01:44.690Z,3.75
2023-04-07T15:04:13.431Z,5.07
2023-04-07T15:06:42.741Z,5.32
2023-04-07T15:09:10.274Z,5.00
2023-04-07T15:11:37.799Z,5.05
2023-04-07T15:14:06.573Z,4.53
2023-04-07T15:16:34.280Z,4.95
2023-04-07T15:19:01.918Z,6.15
2023-04-07T15:21:29.704Z,4.25
2023-04-07T15:23:57.247Z,4.53
2023-04-07T15:26:24.814Z,4.97
2023-04-07T15:28:52.295Z,5.22
2023-04-07T15:31:21.370Z,8.68
2023-04-07T15:33:49.038Z,6.63
2023-04-07T15:36:16.648Z,4.30
2023-04-07T15:38:44.160Z,7.75
2023-04-07T15:41:16.411Z,4.65
2023-04-07T15:43:44.005Z,4.10
2023-04-07T15:46:11.576Z,4.03
2023-04-07T15:48:39.090Z,3.60
2023-04-07T15:51:06.594Z,4.13
2023-04-07T15:53:34.546Z,4.60
2023-04-07T15:56:02.059Z,3.15
2023-04-07T15:58:31.104Z,3.97
2023-04-07T16:00:59.706Z,3.85
2023-04-07T16:03:28.215Z,3.78
2023-04-07T16:05:56.008Z,3.80
2023-04-07T16:08:23.662Z,2.50
2023-04-07T16:10:51.189Z,2.72
2023-04-07T16:13:18.678Z,2.67
2023-04-07T16:15:46.208Z,3.38
2023-04-07T16:18:13.723Z,2.17
2023-04-07T16:20:41.196Z,2.60
2023-04-07T16:23:09.376Z,2.25
2023-04-07T16:25:36.874Z,2.85
2023-04-07T16:28:04.499Z,3.00
2023-04-07T16:30:32.096Z,2.20
2023-04-07T16:33:00.513Z,3.53
2023-04-07T16:35:29.151Z,6.78
2023-04-07T16:38:01.430Z,3.97
2023-04-07T16:40:28.901Z,3.78
2023-04-07T16:42:56.392Z,4.80
2023-04-07T16:45:23.861Z,4.95
2023-04-07T16:47:51.523Z,3.42
2023-04-07T16:50:19.142Z,3.63
2023-04-07T16:52:47.648Z,3.20
2023-04-07T16:55:15.162Z,3.92
2023-04-07T16:57:42.736Z,2.67
2023-04-07T17:00:11.001Z,3.20
2023-04-07T17:02:38.618Z,3.97
2023-04-07T17:05:06.941Z,2.78
2023-04-07T17:07:34.432Z,3.73
2023-04-07T17:10:02.081Z,3.40
2023-04-07T17:12:29.732Z,3.33
2023-04-07T17:14:57.212Z,3.30
2023-04-07T17:17:24.898Z,3.40
2023-04-07T17:19:52.472Z,3.60
2023-04-07T17:22:20.031Z,4.00
2023-04-07T17:24:47.840Z,3.13
2023-04-07T17:27:15.465Z,4.23
2023-04-07T17:29:42.939Z,3.80
2023-04-07T17:32:10.432Z,3.57
2023-04-07T17:34:37.966Z,2.80
2023-04-07T17:37:05.638Z,2.60
2023-04-07T17:39:33.174Z,2.27
2023-04-07T17:42:00.733Z,2.70
2023-04-07T17:44:28.244Z,2.10
2023-04-07T17:46:55.819Z,2.27
2023-04-07T17:49:24.454Z,1.97
2023-04-07T17:51:51.947Z,2.20
2023-04-07T17:54:19.736Z,3.30
2023-04-07T17:56:47.202Z,2.50
2023-04-07T17:59:14.697Z,2.50
2023-04-07T18:01:42.639Z,2.53
2023-04-07T18:04:10.326Z,2.00
2023-04-07T18:06:37.829Z,2.57
2023-04-07T18:09:05.330Z,3.70
2023-04-07T18:11:32.832Z,3.33
2023-04-07T18:14:00.774Z,3.10
2023-04-07T18:16:28.357Z,2.97
2023-04-07T18:18:56.735Z,2.57
2023-04-07T18:21:24.224Z,2.53
2023-04-07T18:23:51.728Z,2.83
2023-04-07T18:26:19.197Z,3.10
2023-04-07T18:28:46.701Z,3.27
2023-04-07T18:31:15.217Z,3.10
2023-04-07T18:33:42.719Z,3.20
2023-04-07T18:36:11.698Z,2.97
2023-04-07T18:38:39.225Z,3.10
2023-04-07T18:41:07.260Z,3.73
2023-04-07T18:43:35.227Z,3.20
2023-04-07T18:46:03.002Z,3.63
2023-04-07T18:48:30.586Z,3.77
2023-04-07T18:50:58.080Z,2.97
2023-04-07T18:53:25.811Z,3.20
2023-04-07T18:55:53.382Z,3.53
2023-04-07T18:58:21.181Z,3.60
2023-04-07T19:00:50.131Z,4.00
2023-04-07T19:03:17.824Z,4.23
2023-04-07T19:05:47.504Z,4.83
2023-04-07T19:08:16.227Z,4.20
2023-04-07T19:10:43.948Z,4.07
2023-04-07T19:13:11.449Z,3.70
2023-04-07T19:15:40.607Z,4.13
2023-04-07T19:18:08.317Z,4.70
2023-04-07T19:20:36.165Z,5.07
2023-04-07T19:23:03.705Z,5.60
2023-04-07T19:25:31.489Z,5.77
2023-04-07T19:27:59.175Z,4.97
2023-04-07T19:30:27.074Z,4.70
2023-04-07T19:32:55.157Z,4.30
2023-04-07T19:35:22.760Z,4.93
2023-04-07T19:37:51.881Z,4.27
2023-04-07T19:40:19.660Z,4.20
2023-04-07T19:42:47.175Z,5.00
2023-04-07T19:45:14.709Z,5.40
2023-04-07T19:47:43.385Z,5.43
2023-04-07T19:50:11.782Z,4.87
2023-04-07T19:52:39.322Z,4.90
2023-04-07T19:55:09.558Z,4.90
2023-04-07T19:57:40.172Z,4.60
2023-04-07T20:00:09.039Z,5.43
2023-04-07T20:02:37.263Z,5.33
2023-04-07T20:05:05.490Z,4.50
2023-04-07T20:07:33.561Z,5.20
2023-04-07T20:10:01.287Z,4.57
2023-04-07T20:12:28.852Z,4.50
2023-04-07T20:14:56.397Z,4.07
2023-04-07T20:17:23.900Z,4.33
2023-04-07T20:19:54.895Z,4.17
2023-04-07T20:22:22.825Z,4.63
2023-04-07T20:24:50.393Z,4.97
2023-04-07T20:27:18.340Z,5.00
2023-04-07T20:29:45.835Z,4.93
2023-04-07T20:32:13.329Z,4.67
2023-04-07T20:34:43.050Z,3.90
2023-04-07T20:37:10.623Z,4.47
2023-04-07T20:39:38.350Z,4.57
2023-04-07T20:42:05.855Z,4.43
2023-04-07T20:44:33.337Z,4.97
2023-04-07T20:47:11.400Z,4.47
2023-04-07T20:49:41.002Z,4.50
2023-04-07T20:52:08.932Z,4.70
2023-04-07T20:54:36.506Z,4.63
2023-04-07T20:57:04.018Z,4.13
2023-04-07T20:59:32.555Z,3.87
2023-04-07T21:02:00.196Z,4.60
2023-04-07T21:04:28.334Z,4.73
2023-04-07T21:06:55.861Z,4.60
2023-04-07T21:09:23.328Z,3.60
2023-04-07T21:11:50.919Z,4.57
2023-04-07T21:14:18.397Z,5.43
2023-04-07T21:16:45.889Z,4.87
2023-04-07T21:19:13.353Z,4.60
2023-04-07T21:21:41.067Z,4.93
2023-04-07T21:24:08.600Z,4.07
2023-04-07T21:26:36.104Z,5.23
2023-04-07T21:29:03.684Z,4.20
2023-04-07T21:31:32.360Z,4.90
2023-04-07T21:34:00.023Z,5.17
2023-04-07T21:36:27.684Z,4.87
2023-04-07T21:38:55.214Z,5.23
2023-04-07T21:41:22.707Z,4.30
2023-04-07T21:43:50.254Z,5.10
2023-04-07T21:46:17.907Z,4.23
2023-04-07T21:48:45.656Z,5.17
2023-04-07T21:51:13.143Z,4.50
2023-04-07T21:53:40.877Z,5.00
2023-04-07T21:56:09.302Z,5.03
2023-04-07T21:58:37.377Z,5.27
2023-04-07T22:01:04.957Z,4.90
2023-04-07T22:03:32.694Z,5.43
2023-04-07T22:06:01.031Z,5.60
2023-04-07T22:08:28.583Z,5.40
2023-04-07T22:10:56.685Z,5.33
2023-04-07T22:13:24.707Z,5.67
2023-04-07T22:15:52.275Z,5.80
2023-04-07T22:18:21.439Z,6.17
2023-04-07T22:20:49.606Z,6.20
2023-04-07T22:23:17.134Z,6.53
2023-04-07T22:25:44.643Z,5.93
2023-04-07T22:28:12.257Z,6.53
2023-04-07T22:30:39.722Z,6.83
2023-04-07T22:33:08.989Z,6.63
2023-04-07T22:35:38.301Z,7.10
2023-04-07T22:38:06.073Z,7.23
2023-04-07T22:40:33.562Z,7.13
2023-04-07T22:43:01.364Z,6.70
2023-04-07T22:45:29.218Z,6.93
2023-04-07T22:47:56.809Z,7.53
2023-04-07T22:50:24.366Z,7.77
2023-04-07T22:52:51.849Z,6.60
2023-04-07T22:55:19.739Z,8.80
2023-04-07T22:57:47.434Z,7.57
2023-04-07T23:00:15.480Z,8.17
2023-04-07T23:02:43.210Z,8.07
2023-04-07T23:05:11.089Z,7.63
2023-04-07T23:07:38.688Z,7.83
2023-04-07T23:10:07.925Z,7.83
2023-04-07T23:12:36.092Z,7.57
2023-04-07T23:15:04.160Z,8.90
2023-04-07T23:17:31.795Z,8.57
2023-04-07T23:19:59.272Z,8.03
2023-04-07T23:22:26.998Z,8.33
2023-04-07T23:24:54.822Z,8.83
2023-04-07T23:27:22.346Z,8.77
2023-04-07T23:29:51.617Z,8.70
2023-04-07T23:32:19.140Z,8.37
2023-04-07T23:34:46.643Z,8.83
2023-04-07T23:37:14.165Z,7.47
2023-04-07T23:39:41.671Z,8.07
2023-04-07T23:42:09.239Z,8.03
2023-04-07T23:44:36.820Z,7.50
2023-04-07T23:47:04.337Z,7.93
2023-04-07T23:49:32.039Z,8.47
2023-04-07T23:51:59.563Z,7.37
2023-04-07T23:54:27.136Z,7.90
2023-04-07T23:56:54.672Z,7.27
2023-04-07T23:59:22.134Z,8.07
